sensor_id;sensor_type;location;lat;lon;timestamp;temperature;humidity
40828;DHT22;26549;50.918;5.338;2023-05-10T00:00:57;15.50;99.90
40828;DHT22;26549;50.918;5.338;2023-05-10T00:03:24;15.50;99.90
40828;DHT22;26549;50.918;5.338;2023-05-10T00:05:52;15.50;99.90
40828;DHT22;26549;50.918;5.338;2023-05-10T00:08:19;15.50;99.90
40828;DHT22;26549;50.918;5.338;2023-05-10T00:10:46;15.50;99.90
40828;DHT22;26549;50.918;5.338;2023-05-10T00:13:14;15.50;99.90
40828;DHT22;26549;50.918;5.338;2023-05-10T00:15:40;15.50;99.90
40828;DHT22;26549;50.918;5.338;2023-05-10T00:18:08;15.50;99.90
40828;DHT22;26549;50.918;5.338;2023-05-10T00:20:37;15.50;99.90
40828;DHT22;26549;50.918;5.338;2023-05-10T00:23:04;15.50;99.90
40828;DHT22;26549;50.918;5.338;2023-05-10T00:25:30;15.50;99.90
40828;DHT22;26549;50.918;5.338;2023-05-10T00:27:57;15.40;99.90
40828;DHT22;26549;50.918;5.338;2023-05-10T00:30:23;15.40;99.90
40828;DHT22;26549;50.918;5.338;2023-05-10T00:32:49;15.40;99.90
40828;DHT22;26549;50.918;5.338;2023-05-10T00:35:15;15.30;99.90
40828;DHT22;26549;50.918;5.338;2023-05-10T00:37:41;15.30;99.90
40828;DHT22;26549;50.918;5.338;2023-05-10T00:40:08;15.40;99.90
40828;DHT22;26549;50.918;5.338;2023-05-10T00:42:33;15.40;99.90
40828;DHT22;26549;50.918;5.338;2023-05-10T00:45:00;15.30;99.90
40828;DHT22;26549;50.918;5.338;2023-05-10T00:47:27;15.40;99.90
40828;DHT22;26549;50.918;5.338;2023-05-10T00:49:55;15.30;99.90
40828;DHT22;26549;50.918;5.338;2023-05-10T00:52:24;15.30;99.90
40828;DHT22;26549;50.918;5.338;2023-05-10T00:54:51;15.30;99.90
40828;DHT22;26549;50.918;5.338;2023-05-10T00:57:19;15.30;99.90
40828;DHT22;26549;50.918;5.338;2023-05-10T00:59:46;15.40;99.90
40828;DHT22;26549;50.918;5.338;2023-05-10T01:02:13;15.30;99.90
40828;DHT22;26549;50.918;5.338;2023-05-10T01:04:39;15.30;99.90
40828;DHT22;26549;50.918;5.338;2023-05-10T01:07:06;15.20;99.90
40828;DHT22;26549;50.918;5.338;2023-05-10T01:09:32;15.10;99.90
40828;DHT22;26549;50.918;5.338;2023-05-10T01:12:00;15.20;99.90
40828;DHT22;26549;50.918;5.338;2023-05-10T01:14:27;15.10;99.90
40828;DHT22;26549;50.918;5.338;2023-05-10T01:16:54;15.10;99.90
40828;DHT22;26549;50.918;5.338;2023-05-10T01:19:26;15.10;99.90
40828;DHT22;26549;50.918;5.338;2023-05-10T01:25:10;15.10;99.90
40828;DHT22;26549;50.918;5.338;2023-05-10T01:30:46;15.10;99.90
40828;DHT22;26549;50.918;5.338;2023-05-10T01:33:21;15.10;99.90
40828;DHT22;26549;50.918;5.338;2023-05-10T01:36:29;15.10;99.90
40828;DHT22;26549;50.918;5.338;2023-05-10T01:39:47;15.00;99.90
40828;DHT22;26549;50.918;5.338;2023-05-10T01:42:06;15.00;99.90
40828;DHT22;26549;50.918;5.338;2023-05-10T01:44:39;15.00;99.90
40828;DHT22;26549;50.918;5.338;2023-05-10T01:47:42;15.00;99.90
40828;DHT22;26549;50.918;5.338;2023-05-10T01:50:17;15.10;99.90
40828;DHT22;26549;50.918;5.338;2023-05-10T01:52:53;15.00;99.90
40828;DHT22;26549;50.918;5.338;2023-05-10T01:55:21;14.90;99.90
40828;DHT22;26549;50.918;5.338;2023-05-10T01:57:52;14.90;99.90
40828;DHT22;26549;50.918;5.338;2023-05-10T02:00:22;15.00;99.90
40828;DHT22;26549;50.918;5.338;2023-05-10T02:02:49;15.00;99.90
40828;DHT22;26549;50.918;5.338;2023-05-10T02:05:16;15.00;99.90
40828;DHT22;26549;50.918;5.338;2023-05-10T02:07:43;15.00;99.90
40828;DHT22;26549;50.918;5.338;2023-05-10T02:10:11;15.10;99.90
40828;DHT22;26549;50.918;5.338;2023-05-10T02:12:43;15.10;99.90
40828;DHT22;26549;50.918;5.338;2023-05-10T02:15:12;15.10;99.90
40828;DHT22;26549;50.918;5.338;2023-05-10T02:17:42;15.00;99.90
40828;DHT22;26549;50.918;5.338;2023-05-10T02:20:09;15.00;99.90
40828;DHT22;26549;50.918;5.338;2023-05-10T02:22:36;15.10;99.90
40828;DHT22;26549;50.918;5.338;2023-05-10T02:25:03;15.20;99.90
40828;DHT22;26549;50.918;5.338;2023-05-10T02:27:30;15.20;99.90
40828;DHT22;26549;50.918;5.338;2023-05-10T02:29:57;15.10;99.90
40828;DHT22;26549;50.918;5.338;2023-05-10T02:32:25;15.00;99.90
40828;DHT22;26549;50.918;5.338;2023-05-10T02:34:54;15.10;99.90
40828;DHT22;26549;50.918;5.338;2023-05-10T02:37:21;15.00;99.90
40828;DHT22;26549;50.918;5.338;2023-05-10T02:39:51;15.10;99.90
40828;DHT22;26549;50.918;5.338;2023-05-10T02:42:18;15.20;99.90
40828;DHT22;26549;50.918;5.338;2023-05-10T02:44:50;15.20;99.90
40828;DHT22;26549;50.918;5.338;2023-05-10T02:47:18;15.10;99.90
40828;DHT22;26549;50.918;5.338;2023-05-10T02:49:44;15.20;99.90
40828;DHT22;26549;50.918;5.338;2023-05-10T02:52:12;15.10;99.90
40828;DHT22;26549;50.918;5.338;2023-05-10T02:54:45;15.10;99.90
40828;DHT22;26549;50.918;5.338;2023-05-10T02:57:16;15.00;99.90
40828;DHT22;26549;50.918;5.338;2023-05-10T02:59:45;15.00;99.90
40828;DHT22;26549;50.918;5.338;2023-05-10T03:02:12;14.90;99.90
40828;DHT22;26549;50.918;5.338;2023-05-10T03:04:39;15.00;99.90
40828;DHT22;26549;50.918;5.338;2023-05-10T03:07:06;15.00;99.90
40828;DHT22;26549;50.918;5.338;2023-05-10T03:09:34;15.00;99.90
40828;DHT22;26549;50.918;5.338;2023-05-10T03:17:47;15.10;99.90
40828;DHT22;26549;50.918;5.338;2023-05-10T03:20:42;15.10;99.90
40828;DHT22;26549;50.918;5.338;2023-05-10T03:23:26;15.10;99.90
40828;DHT22;26549;50.918;5.338;2023-05-10T03:25:53;15.20;99.90
40828;DHT22;26549;50.918;5.338;2023-05-10T03:28:21;15.30;99.90
40828;DHT22;26549;50.918;5.338;2023-05-10T03:30:52;15.30;99.90
40828;DHT22;26549;50.918;5.338;2023-05-10T03:33:19;15.30;99.90
40828;DHT22;26549;50.918;5.338;2023-05-10T03:35:46;15.20;99.90
40828;DHT22;26549;50.918;5.338;2023-05-10T03:38:13;15.20;99.90
40828;DHT22;26549;50.918;5.338;2023-05-10T03:40:39;15.10;99.90
40828;DHT22;26549;50.918;5.338;2023-05-10T03:43:05;15.20;99.90
40828;DHT22;26549;50.918;5.338;2023-05-10T03:45:31;15.10;99.90
40828;DHT22;26549;50.918;5.338;2023-05-10T03:47:58;15.00;99.90
40828;DHT22;26549;50.918;5.338;2023-05-10T03:50:24;15.00;99.90
40828;DHT22;26549;50.918;5.338;2023-05-10T03:52:51;14.90;99.90
40828;DHT22;26549;50.918;5.338;2023-05-10T03:55:17;15.10;99.90
40828;DHT22;26549;50.918;5.338;2023-05-10T03:57:43;15.10;99.90
40828;DHT22;26549;50.918;5.338;2023-05-10T04:00:09;15.00;99.90
40828;DHT22;26549;50.918;5.338;2023-05-10T04:02:35;15.10;99.90
40828;DHT22;26549;50.918;5.338;2023-05-10T04:05:01;15.00;99.90
40828;DHT22;26549;50.918;5.338;2023-05-10T04:07:28;14.90;99.90
40828;DHT22;26549;50.918;5.338;2023-05-10T04:09:55;15.00;99.90
40828;DHT22;26549;50.918;5.338;2023-05-10T04:12:23;14.90;99.90
40828;DHT22;26549;50.918;5.338;2023-05-10T04:14:50;14.90;99.90
40828;DHT22;26549;50.918;5.338;2023-05-10T04:17:17;15.00;99.90
40828;DHT22;26549;50.918;5.338;2023-05-10T04:19:44;14.90;99.90
40828;DHT22;26549;50.918;5.338;2023-05-10T04:22:10;14.80;99.90
40828;DHT22;26549;50.918;5.338;2023-05-10T04:24:37;14.80;99.90
40828;DHT22;26549;50.918;5.338;2023-05-10T04:27:02;14.90;99.90
40828;DHT22;26549;50.918;5.338;2023-05-10T04:29:31;14.90;99.90
40828;DHT22;26549;50.918;5.338;2023-05-10T04:31:57;14.90;99.90
40828;DHT22;26549;50.918;5.338;2023-05-10T04:34:24;14.90;99.90
40828;DHT22;26549;50.918;5.338;2023-05-10T04:36:51;14.90;99.90
40828;DHT22;26549;50.918;5.338;2023-05-10T04:39:16;15.00;99.90
40828;DHT22;26549;50.918;5.338;2023-05-10T04:41:42;15.00;99.90
40828;DHT22;26549;50.918;5.338;2023-05-10T04:44:11;15.00;99.90
40828;DHT22;26549;50.918;5.338;2023-05-10T04:46:40;14.90;99.90
40828;DHT22;26549;50.918;5.338;2023-05-10T04:49:05;14.70;99.90
40828;DHT22;26549;50.918;5.338;2023-05-10T04:51:31;14.70;99.90
40828;DHT22;26549;50.918;5.338;2023-05-10T04:53:58;14.90;99.90
40828;DHT22;26549;50.918;5.338;2023-05-10T04:56:26;14.90;99.90
40828;DHT22;26549;50.918;5.338;2023-05-10T04:58:52;14.80;99.90
40828;DHT22;26549;50.918;5.338;2023-05-10T05:01:18;14.70;99.90
40828;DHT22;26549;50.918;5.338;2023-05-10T05:03:44;14.80;99.90
40828;DHT22;26549;50.918;5.338;2023-05-10T05:06:10;14.90;99.90
40828;DHT22;26549;50.918;5.338;2023-05-10T05:08:38;14.90;99.90
40828;DHT22;26549;50.918;5.338;2023-05-10T05:11:04;14.80;99.90
40828;DHT22;26549;50.918;5.338;2023-05-10T05:13:30;14.90;99.90
40828;DHT22;26549;50.918;5.338;2023-05-10T05:16:01;14.80;99.90
40828;DHT22;26549;50.918;5.338;2023-05-10T05:18:31;14.80;99.90
40828;DHT22;26549;50.918;5.338;2023-05-10T05:20:59;14.90;99.90
40828;DHT22;26549;50.918;5.338;2023-05-10T05:23:27;14.90;99.90
40828;DHT22;26549;50.918;5.338;2023-05-10T05:25:53;14.90;99.90
40828;DHT22;26549;50.918;5.338;2023-05-10T05:28:20;14.90;99.90
40828;DHT22;26549;50.918;5.338;2023-05-10T05:30:46;14.80;99.90
40828;DHT22;26549;50.918;5.338;2023-05-10T05:33:15;14.80;99.90
40828;DHT22;26549;50.918;5.338;2023-05-10T05:35:41;14.90;99.90
40828;DHT22;26549;50.918;5.338;2023-05-10T05:38:11;15.00;99.90
40828;DHT22;26549;50.918;5.338;2023-05-10T05:40:37;15.00;99.90
40828;DHT22;26549;50.918;5.338;2023-05-10T05:43:03;15.10;99.90
40828;DHT22;26549;50.918;5.338;2023-05-10T05:45:29;15.20;99.90
40828;DHT22;26549;50.918;5.338;2023-05-10T05:47:55;15.30;99.90
40828;DHT22;26549;50.918;5.338;2023-05-10T05:50:24;15.20;99.90
40828;DHT22;26549;50.918;5.338;2023-05-10T05:52:50;15.10;99.90
40828;DHT22;26549;50.918;5.338;2023-05-10T05:55:16;15.10;99.90
40828;DHT22;26549;50.918;5.338;2023-05-10T05:57:43;15.00;99.90
40828;DHT22;26549;50.918;5.338;2023-05-10T06:00:09;14.90;99.90
40828;DHT22;26549;50.918;5.338;2023-05-10T06:02:35;14.80;99.90
40828;DHT22;26549;50.918;5.338;2023-05-10T06:05:00;14.70;99.90
40828;DHT22;26549;50.918;5.338;2023-05-10T06:07:26;14.80;99.90
40828;DHT22;26549;50.918;5.338;2023-05-10T06:09:52;14.80;99.90
40828;DHT22;26549;50.918;5.338;2023-05-10T06:12:17;14.90;99.90
40828;DHT22;26549;50.918;5.338;2023-05-10T06:14:43;14.90;99.90
40828;DHT22;26549;50.918;5.338;2023-05-10T06:17:09;14.90;99.90
40828;DHT22;26549;50.918;5.338;2023-05-10T06:19:35;14.90;99.90
40828;DHT22;26549;50.918;5.338;2023-05-10T06:22:01;15.00;99.90
40828;DHT22;26549;50.918;5.338;2023-05-10T06:24:28;15.00;99.90
40828;DHT22;26549;50.918;5.338;2023-05-10T06:26:54;15.00;99.90
40828;DHT22;26549;50.918;5.338;2023-05-10T06:29:20;15.00;99.90
40828;DHT22;26549;50.918;5.338;2023-05-10T06:31:46;15.00;99.90
40828;DHT22;26549;50.918;5.338;2023-05-10T06:34:12;15.00;99.90
40828;DHT22;26549;50.918;5.338;2023-05-10T06:36:39;15.00;99.90
40828;DHT22;26549;50.918;5.338;2023-05-10T06:39:04;15.00;99.90
40828;DHT22;26549;50.918;5.338;2023-05-10T06:41:31;15.10;99.90
40828;DHT22;26549;50.918;5.338;2023-05-10T06:43:56;15.10;99.90
40828;DHT22;26549;50.918;5.338;2023-05-10T06:46:22;15.00;99.90
40828;DHT22;26549;50.918;5.338;2023-05-10T06:48:48;15.10;99.90
40828;DHT22;26549;50.918;5.338;2023-05-10T06:51:13;15.10;99.90
40828;DHT22;26549;50.918;5.338;2023-05-10T06:53:40;15.20;99.90
40828;DHT22;26549;50.918;5.338;2023-05-10T06:56:06;15.20;99.90
40828;DHT22;26549;50.918;5.338;2023-05-10T06:58:32;15.20;99.90
40828;DHT22;26549;50.918;5.338;2023-05-10T07:01:05;15.20;99.90
40828;DHT22;26549;50.918;5.338;2023-05-10T07:03:31;15.20;99.90
40828;DHT22;26549;50.918;5.338;2023-05-10T07:06:01;15.20;99.90
40828;DHT22;26549;50.918;5.338;2023-05-10T07:08:31;15.10;99.90
40828;DHT22;26549;50.918;5.338;2023-05-10T07:11:05;15.20;99.90
40828;DHT22;26549;50.918;5.338;2023-05-10T07:13:34;15.20;99.90
40828;DHT22;26549;50.918;5.338;2023-05-10T07:16:00;15.20;99.90
40828;DHT22;26549;50.918;5.338;2023-05-10T07:18:27;15.20;99.90
40828;DHT22;26549;50.918;5.338;2023-05-10T07:20:53;15.00;99.90
40828;DHT22;26549;50.918;5.338;2023-05-10T07:23:19;15.10;99.90
40828;DHT22;26549;50.918;5.338;2023-05-10T07:25:49;15.10;99.90
40828;DHT22;26549;50.918;5.338;2023-05-10T07:28:16;15.20;99.90
40828;DHT22;26549;50.918;5.338;2023-05-10T07:30:42;15.30;99.90
40828;DHT22;26549;50.918;5.338;2023-05-10T07:33:09;15.30;99.90
40828;DHT22;26549;50.918;5.338;2023-05-10T07:35:36;15.40;99.90
40828;DHT22;26549;50.918;5.338;2023-05-10T07:38:02;15.40;99.90
40828;DHT22;26549;50.918;5.338;2023-05-10T07:40:29;15.40;99.90
40828;DHT22;26549;50.918;5.338;2023-05-10T07:42:55;15.30;99.90
40828;DHT22;26549;50.918;5.338;2023-05-10T07:45:21;15.30;99.90
40828;DHT22;26549;50.918;5.338;2023-05-10T07:47:47;15.40;99.90
40828;DHT22;26549;50.918;5.338;2023-05-10T07:50:13;15.40;99.90
40828;DHT22;26549;50.918;5.338;2023-05-10T07:52:39;15.40;99.90
40828;DHT22;26549;50.918;5.338;2023-05-10T07:55:05;15.50;99.90
40828;DHT22;26549;50.918;5.338;2023-05-10T07:57:33;15.60;99.90
40828;DHT22;26549;50.918;5.338;2023-05-10T07:59:59;15.60;99.90
40828;DHT22;26549;50.918;5.338;2023-05-10T08:02:25;15.70;99.90
40828;DHT22;26549;50.918;5.338;2023-05-10T08:04:51;15.70;99.90
40828;DHT22;26549;50.918;5.338;2023-05-10T08:07:17;15.70;99.90
40828;DHT22;26549;50.918;5.338;2023-05-10T08:09:44;15.50;99.90
40828;DHT22;26549;50.918;5.338;2023-05-10T08:12:09;15.30;99.90
40828;DHT22;26549;50.918;5.338;2023-05-10T08:14:35;15.20;99.90
40828;DHT22;26549;50.918;5.338;2023-05-10T08:17:02;15.20;99.90
40828;DHT22;26549;50.918;5.338;2023-05-10T08:19:28;15.10;99.90
40828;DHT22;26549;50.918;5.338;2023-05-10T08:21:54;15.00;99.90
40828;DHT22;26549;50.918;5.338;2023-05-10T08:24:22;15.00;99.90
40828;DHT22;26549;50.918;5.338;2023-05-10T08:26:48;14.90;99.90
40828;DHT22;26549;50.918;5.338;2023-05-10T08:29:14;15.00;99.90
40828;DHT22;26549;50.918;5.338;2023-05-10T08:31:40;14.90;99.90
40828;DHT22;26549;50.918;5.338;2023-05-10T08:34:07;14.80;99.90
40828;DHT22;26549;50.918;5.338;2023-05-10T08:36:32;14.80;99.90
40828;DHT22;26549;50.918;5.338;2023-05-10T08:38:58;14.90;99.90
40828;DHT22;26549;50.918;5.338;2023-05-10T08:41:24;14.70;99.90
40828;DHT22;26549;50.918;5.338;2023-05-10T08:43:52;14.70;99.90
40828;DHT22;26549;50.918;5.338;2023-05-10T08:46:20;14.80;99.90
40828;DHT22;26549;50.918;5.338;2023-05-10T08:48:47;14.60;99.90
40828;DHT22;26549;50.918;5.338;2023-05-10T08:51:15;14.70;99.90
40828;DHT22;26549;50.918;5.338;2023-05-10T08:53:44;14.60;99.90
40828;DHT22;26549;50.918;5.338;2023-05-10T08:56:10;14.70;99.90
40828;DHT22;26549;50.918;5.338;2023-05-10T08:58:37;14.80;99.90
40828;DHT22;26549;50.918;5.338;2023-05-10T09:01:03;14.80;99.90
40828;DHT22;26549;50.918;5.338;2023-05-10T09:03:30;14.90;99.90
40828;DHT22;26549;50.918;5.338;2023-05-10T09:05:56;14.90;99.90
40828;DHT22;26549;50.918;5.338;2023-05-10T09:08:26;14.90;99.90
40828;DHT22;26549;50.918;5.338;2023-05-10T09:10:53;14.90;99.90
40828;DHT22;26549;50.918;5.338;2023-05-10T09:13:19;14.80;99.90
40828;DHT22;26549;50.918;5.338;2023-05-10T09:15:47;14.80;99.90
40828;DHT22;26549;50.918;5.338;2023-05-10T09:18:13;14.90;99.90
40828;DHT22;26549;50.918;5.338;2023-05-10T09:20:40;14.90;99.90
40828;DHT22;26549;50.918;5.338;2023-05-10T09:23:07;15.10;99.90
40828;DHT22;26549;50.918;5.338;2023-05-10T09:25:33;15.10;99.90
40828;DHT22;26549;50.918;5.338;2023-05-10T09:27:59;15.20;99.90
40828;DHT22;26549;50.918;5.338;2023-05-10T09:30:27;15.20;99.90
40828;DHT22;26549;50.918;5.338;2023-05-10T09:32:53;15.10;99.90
40828;DHT22;26549;50.918;5.338;2023-05-10T09:35:22;15.10;99.90
40828;DHT22;26549;50.918;5.338;2023-05-10T09:37:53;15.10;99.90
40828;DHT22;26549;50.918;5.338;2023-05-10T09:40:24;15.20;99.90
40828;DHT22;26549;50.918;5.338;2023-05-10T09:42:56;15.20;99.90
40828;DHT22;26549;50.918;5.338;2023-05-10T09:45:24;15.30;99.90
40828;DHT22;26549;50.918;5.338;2023-05-10T09:47:50;15.40;99.90
40828;DHT22;26549;50.918;5.338;2023-05-10T09:50:16;15.50;99.90
40828;DHT22;26549;50.918;5.338;2023-05-10T09:52:54;15.60;99.90
40828;DHT22;26549;50.918;5.338;2023-05-10T09:55:22;15.60;99.90
40828;DHT22;26549;50.918;5.338;2023-05-10T09:57:49;15.60;99.90
40828;DHT22;26549;50.918;5.338;2023-05-10T10:00:21;15.80;99.90
40828;DHT22;26549;50.918;5.338;2023-05-10T10:02:53;15.80;99.90
40828;DHT22;26549;50.918;5.338;2023-05-10T10:05:19;15.60;99.90
40828;DHT22;26549;50.918;5.338;2023-05-10T10:07:45;15.70;99.90
40828;DHT22;26549;50.918;5.338;2023-05-10T10:10:11;15.80;99.90
40828;DHT22;26549;50.918;5.338;2023-05-10T10:12:39;15.90;99.90
40828;DHT22;26549;50.918;5.338;2023-05-10T10:15:07;15.90;99.90
40828;DHT22;26549;50.918;5.338;2023-05-10T10:17:35;16.10;99.90
40828;DHT22;26549;50.918;5.338;2023-05-10T10:20:03;16.30;99.90
40828;DHT22;26549;50.918;5.338;2023-05-10T10:22:29;16.10;99.90
40828;DHT22;26549;50.918;5.338;2023-05-10T10:24:55;16.00;99.90
40828;DHT22;26549;50.918;5.338;2023-05-10T10:35:53;15.70;99.90
40828;DHT22;26549;50.918;5.338;2023-05-10T10:38:20;15.60;99.90
40828;DHT22;26549;50.918;5.338;2023-05-10T10:40:47;15.80;99.90
40828;DHT22;26549;50.918;5.338;2023-05-10T10:43:27;15.80;99.90
40828;DHT22;26549;50.918;5.338;2023-05-10T10:46:15;15.80;99.90
40828;DHT22;26549;50.918;5.338;2023-05-10T10:48:49;15.80;99.90
40828;DHT22;26549;50.918;5.338;2023-05-10T10:51:15;15.90;99.90
40828;DHT22;26549;50.918;5.338;2023-05-10T10:53:41;15.80;99.90
40828;DHT22;26549;50.918;5.338;2023-05-10T10:56:10;15.80;99.90
40828;DHT22;26549;50.918;5.338;2023-05-10T10:58:37;15.80;99.90
40828;DHT22;26549;50.918;5.338;2023-05-10T11:01:14;15.90;99.90
40828;DHT22;26549;50.918;5.338;2023-05-10T11:03:54;16.00;99.90
40828;DHT22;26549;50.918;5.338;2023-05-10T11:06:34;16.10;99.90
40828;DHT22;26549;50.918;5.338;2023-05-10T11:09:09;16.00;99.90
40828;DHT22;26549;50.918;5.338;2023-05-10T11:12:07;15.80;99.90
40828;DHT22;26549;50.918;5.338;2023-05-10T11:14:33;16.00;99.90
40828;DHT22;26549;50.918;5.338;2023-05-10T11:17:01;16.10;99.90
40828;DHT22;26549;50.918;5.338;2023-05-10T11:19:28;16.20;99.90
40828;DHT22;26549;50.918;5.338;2023-05-10T11:24:32;16.30;99.90
40828;DHT22;26549;50.918;5.338;2023-05-10T11:27:01;16.40;99.90
40828;DHT22;26549;50.918;5.338;2023-05-10T11:29:29;16.40;99.90
40828;DHT22;26549;50.918;5.338;2023-05-10T11:31:58;16.30;99.90
40828;DHT22;26549;50.918;5.338;2023-05-10T11:34:27;16.20;99.90
40828;DHT22;26549;50.918;5.338;2023-05-10T11:36:56;16.30;99.90
40828;DHT22;26549;50.918;5.338;2023-05-10T11:39:32;16.20;99.90
40828;DHT22;26549;50.918;5.338;2023-05-10T11:42:00;16.30;99.90
40828;DHT22;26549;50.918;5.338;2023-05-10T11:44:32;16.50;99.90
40828;DHT22;26549;50.918;5.338;2023-05-10T11:47:00;16.40;99.90
40828;DHT22;26549;50.918;5.338;2023-05-10T11:49:26;16.30;99.90
40828;DHT22;26549;50.918;5.338;2023-05-10T11:51:52;16.20;99.90
40828;DHT22;26549;50.918;5.338;2023-05-10T11:54:19;16.20;99.90
40828;DHT22;26549;50.918;5.338;2023-05-10T11:56:45;16.50;99.90
40828;DHT22;26549;50.918;5.338;2023-05-10T11:59:14;16.20;99.90
40828;DHT22;26549;50.918;5.338;2023-05-10T12:01:41;16.10;99.90
40828;DHT22;26549;50.918;5.338;2023-05-10T12:04:08;16.20;99.90
40828;DHT22;26549;50.918;5.338;2023-05-10T12:06:40;16.10;99.90
40828;DHT22;26549;50.918;5.338;2023-05-10T12:09:07;16.30;99.90
40828;DHT22;26549;50.918;5.338;2023-05-10T12:11:38;16.50;99.90
40828;DHT22;26549;50.918;5.338;2023-05-10T12:14:08;16.60;99.90
40828;DHT22;26549;50.918;5.338;2023-05-10T12:16:37;16.70;99.90
40828;DHT22;26549;50.918;5.338;2023-05-10T12:19:04;16.70;99.90
40828;DHT22;26549;50.918;5.338;2023-05-10T12:21:30;16.60;99.90
40828;DHT22;26549;50.918;5.338;2023-05-10T12:24:02;16.70;99.90
40828;DHT22;26549;50.918;5.338;2023-05-10T12:26:29;16.80;99.90
40828;DHT22;26549;50.918;5.338;2023-05-10T12:29:15;16.90;99.90
40828;DHT22;26549;50.918;5.338;2023-05-10T12:31:54;17.00;99.90
40828;DHT22;26549;50.918;5.338;2023-05-10T12:34:31;17.00;99.90
40828;DHT22;26549;50.918;5.338;2023-05-10T12:36:58;17.00;99.90
40828;DHT22;26549;50.918;5.338;2023-05-10T12:39:24;17.10;99.90
40828;DHT22;26549;50.918;5.338;2023-05-10T12:41:51;17.00;99.90
40828;DHT22;26549;50.918;5.338;2023-05-10T12:44:20;17.00;99.90
40828;DHT22;26549;50.918;5.338;2023-05-10T12:46:46;17.00;99.90
40828;DHT22;26549;50.918;5.338;2023-05-10T12:49:12;17.00;99.90
40828;DHT22;26549;50.918;5.338;2023-05-10T12:51:37;17.00;99.90
40828;DHT22;26549;50.918;5.338;2023-05-10T12:54:03;17.00;99.90
40828;DHT22;26549;50.918;5.338;2023-05-10T12:56:30;16.90;99.90
40828;DHT22;26549;50.918;5.338;2023-05-10T12:58:56;17.10;99.90
40828;DHT22;26549;50.918;5.338;2023-05-10T13:01:21;17.10;99.90
40828;DHT22;26549;50.918;5.338;2023-05-10T13:03:50;17.20;99.90
40828;DHT22;26549;50.918;5.338;2023-05-10T13:06:17;17.10;99.90
40828;DHT22;26549;50.918;5.338;2023-05-10T13:08:42;17.20;99.90
40828;DHT22;26549;50.918;5.338;2023-05-10T13:11:11;17.10;99.90
40828;DHT22;26549;50.918;5.338;2023-05-10T13:13:38;17.20;99.90
40828;DHT22;26549;50.918;5.338;2023-05-10T13:16:05;17.20;99.90
40828;DHT22;26549;50.918;5.338;2023-05-10T13:18:31;17.30;99.90
40828;DHT22;26549;50.918;5.338;2023-05-10T13:20:56;17.40;99.90
40828;DHT22;26549;50.918;5.338;2023-05-10T13:23:22;17.50;99.90
40828;DHT22;26549;50.918;5.338;2023-05-10T13:25:48;17.40;99.90
40828;DHT22;26549;50.918;5.338;2023-05-10T13:28:15;17.60;99.90
40828;DHT22;26549;50.918;5.338;2023-05-10T13:30:40;17.60;99.90
40828;DHT22;26549;50.918;5.338;2023-05-10T13:33:07;17.70;99.90
40828;DHT22;26549;50.918;5.338;2023-05-10T13:35:32;17.60;99.90
40828;DHT22;26549;50.918;5.338;2023-05-10T13:37:58;17.60;99.90
40828;DHT22;26549;50.918;5.338;2023-05-10T13:40:24;17.60;99.90
40828;DHT22;26549;50.918;5.338;2023-05-10T13:42:50;17.60;99.90
40828;DHT22;26549;50.918;5.338;2023-05-10T13:45:15;17.40;99.90
40828;DHT22;26549;50.918;5.338;2023-05-10T13:47:41;17.50;99.90
40828;DHT22;26549;50.918;5.338;2023-05-10T13:50:07;17.50;99.90
40828;DHT22;26549;50.918;5.338;2023-05-10T13:52:33;17.40;99.90
40828;DHT22;26549;50.918;5.338;2023-05-10T13:54:59;17.50;99.90
40828;DHT22;26549;50.918;5.338;2023-05-10T13:57:26;17.50;99.90
40828;DHT22;26549;50.918;5.338;2023-05-10T13:59:52;17.50;99.90
40828;DHT22;26549;50.918;5.338;2023-05-10T14:02:18;17.60;99.90
40828;DHT22;26549;50.918;5.338;2023-05-10T14:04:43;17.50;99.90
40828;DHT22;26549;50.918;5.338;2023-05-10T14:07:09;17.50;99.90
40828;DHT22;26549;50.918;5.338;2023-05-10T14:09:36;17.30;99.90
40828;DHT22;26549;50.918;5.338;2023-05-10T14:12:04;17.20;99.90
40828;DHT22;26549;50.918;5.338;2023-05-10T14:14:30;17.20;99.90
40828;DHT22;26549;50.918;5.338;2023-05-10T14:16:58;17.30;99.90
40828;DHT22;26549;50.918;5.338;2023-05-10T14:19:27;17.50;99.90
40828;DHT22;26549;50.918;5.338;2023-05-10T14:21:56;17.50;99.90
40828;DHT22;26549;50.918;5.338;2023-05-10T14:24:25;17.40;99.90
40828;DHT22;26549;50.918;5.338;2023-05-10T14:26:53;17.40;99.90
40828;DHT22;26549;50.918;5.338;2023-05-10T14:29:20;17.50;99.90
40828;DHT22;26549;50.918;5.338;2023-05-10T14:31:46;17.70;99.90
40828;DHT22;26549;50.918;5.338;2023-05-10T14:34:13;17.60;99.90
40828;DHT22;26549;50.918;5.338;2023-05-10T14:36:38;17.80;99.90
40828;DHT22;26549;50.918;5.338;2023-05-10T14:39:05;18.00;99.90
40828;DHT22;26549;50.918;5.338;2023-05-10T14:41:32;18.10;99.90
40828;DHT22;26549;50.918;5.338;2023-05-10T14:43:58;18.10;99.90
40828;DHT22;26549;50.918;5.338;2023-05-10T14:46:24;17.90;99.90
40828;DHT22;26549;50.918;5.338;2023-05-10T14:48:49;17.90;99.90
40828;DHT22;26549;50.918;5.338;2023-05-10T14:51:15;18.00;99.90
40828;DHT22;26549;50.918;5.338;2023-05-10T14:53:41;18.00;99.90
40828;DHT22;26549;50.918;5.338;2023-05-10T14:56:07;18.00;99.90
40828;DHT22;26549;50.918;5.338;2023-05-10T14:58:32;18.20;99.90
40828;DHT22;26549;50.918;5.338;2023-05-10T15:00:58;18.40;99.90
40828;DHT22;26549;50.918;5.338;2023-05-10T15:03:24;18.40;99.90
40828;DHT22;26549;50.918;5.338;2023-05-10T15:05:50;18.40;99.90
40828;DHT22;26549;50.918;5.338;2023-05-10T15:08:17;18.40;99.90
40828;DHT22;26549;50.918;5.338;2023-05-10T15:10:42;18.30;99.90
40828;DHT22;26549;50.918;5.338;2023-05-10T15:13:08;18.30;99.90
40828;DHT22;26549;50.918;5.338;2023-05-10T15:15:34;18.20;99.90
40828;DHT22;26549;50.918;5.338;2023-05-10T15:18:00;18.00;99.90
40828;DHT22;26549;50.918;5.338;2023-05-10T15:20:26;18.00;99.90
40828;DHT22;26549;50.918;5.338;2023-05-10T15:22:51;18.30;99.90
40828;DHT22;26549;50.918;5.338;2023-05-10T15:25:17;18.30;99.90
40828;DHT22;26549;50.918;5.338;2023-05-10T15:27:45;18.40;99.90
40828;DHT22;26549;50.918;5.338;2023-05-10T15:30:11;18.50;99.90
40828;DHT22;26549;50.918;5.338;2023-05-10T15:32:37;18.60;99.90
40828;DHT22;26549;50.918;5.338;2023-05-10T15:35:05;18.50;99.90
40828;DHT22;26549;50.918;5.338;2023-05-10T15:37:34;18.60;99.90
40828;DHT22;26549;50.918;5.338;2023-05-10T15:40:00;18.50;99.90
40828;DHT22;26549;50.918;5.338;2023-05-10T15:42:29;18.40;99.90
40828;DHT22;26549;50.918;5.338;2023-05-10T15:44:56;18.40;99.90
40828;DHT22;26549;50.918;5.338;2023-05-10T15:47:22;18.40;99.90
40828;DHT22;26549;50.918;5.338;2023-05-10T15:49:47;18.70;99.90
40828;DHT22;26549;50.918;5.338;2023-05-10T15:52:14;18.80;99.90
40828;DHT22;26549;50.918;5.338;2023-05-10T15:54:42;18.80;99.90
40828;DHT22;26549;50.918;5.338;2023-05-10T15:57:08;18.90;99.90